Time;durP1;ratioP1;P1;durP2;ratioP2;P2;SDS_P1;SDS_P2;PMS_P1;PMS_P2;Temp;Humidity;BMP_temperature;BMP_pressure;BME280_temperature;BME280_humidity;BME280_pressure;Samples;Min_cycle;Max_cycle;Signal;HPM_P1;HPM_P2
2021/03/16 00:01:11;;;;;;;8.05;2.60;;;;;;;3.77;77.40;98966.09;5024511;28;20014;-72
2021/03/16 00:03:37;;;;;;;7.72;2.33;;;;;;;3.85;77.29;98987.53;5031330;28;20049;-73
2021/03/16 00:06:05;;;;;;;5.32;2.42;;;;;;;3.76;77.60;98989.34;5026394;28;20027;-72
2021/03/16 00:08:30;;;;;;;7.10;3.05;;;;;;;3.57;77.23;98981.50;5015939;28;20042;-72
2021/03/16 00:10:55;;;;;;;11.48;2.58;;;;;;;3.60;77.61;98989.22;5053982;28;20033;-72
2021/03/16 00:13:21;;;;;;;9.88;2.70;;;;;;;3.53;77.22;98980.09;5034258;28;20020;-72
2021/03/16 00:15:47;;;;;;;11.48;2.58;;;;;;;3.62;75.95;98982.72;5031534;28;20033;-72
2021/03/16 00:18:15;;;;;;;9.57;2.63;;;;;;;3.62;77.17;98993.41;5016678;28;20042;-73
2021/03/16 00:20:42;;;;;;;7.38;2.47;;;;;;;3.48;76.91;98988.59;5022405;28;20070;-72
2021/03/16 00:23:07;;;;;;;7.80;2.22;;;;;;;3.59;77.24;98996.41;5035284;28;20041;-72
2021/03/16 00:25:33;;;;;;;6.30;2.15;;;;;;;3.51;76.82;98985.59;5004630;28;20424;-72
2021/03/16 00:27:58;;;;;;;9.25;2.00;;;;;;;3.50;77.20;98994.63;5012729;28;20020;-72
2021/03/16 00:30:24;;;;;;;9.35;2.15;;;;;;;3.51;77.54;98993.63;5000463;28;20037;-72
2021/03/16 00:32:49;;;;;;;10.35;2.17;;;;;;;3.54;76.76;98979.09;5019247;28;20041;-72
2021/03/16 00:35:15;;;;;;;5.68;2.10;;;;;;;3.59;76.71;98993.72;5010933;28;20036;-72
2021/03/16 00:37:40;;;;;;;7.65;2.42;;;;;;;3.64;77.27;98985.22;5008362;28;20056;-72
2021/03/16 00:40:06;;;;;;;7.45;2.30;;;;;;;3.66;76.62;98983.22;4996456;28;20070;-72
2021/03/16 00:42:32;;;;;;;5.07;2.10;;;;;;;3.64;76.40;98990.56;4976490;28;20026;-72
2021/03/16 00:44:58;;;;;;;7.47;1.98;;;;;;;3.64;77.10;99001.25;5015023;28;20031;-72
2021/03/16 00:47:23;;;;;;;5.82;1.85;;;;;;;3.62;76.64;98997.94;5012602;28;20030;-72
2021/03/16 00:49:48;;;;;;;6.10;1.60;;;;;;;3.59;77.17;99015.13;5008973;28;20037;-72
2021/03/16 00:52:14;;;;;;;10.18;1.73;;;;;;;3.56;76.90;98996.69;5010388;28;20109;-72
2021/03/16 00:54:39;;;;;;;5.85;1.90;;;;;;;3.69;76.61;99013.22;5006358;28;20036;-72
2021/03/16 00:57:04;;;;;;;5.82;1.58;;;;;;;3.74;76.07;99012.72;5014760;28;20427;-72
2021/03/16 00:59:30;;;;;;;4.88;1.52;;;;;;;3.76;76.32;99015.25;5013912;28;20022;-72
2021/03/16 01:01:55;;;;;;;5.72;1.60;;;;;;;3.78;76.46;99018.63;5003571;28;20690;-72
2021/03/16 01:04:20;;;;;;;5.50;1.40;;;;;;;3.76;76.40;99025.97;5001981;28;20033;-72
2021/03/16 01:06:46;;;;;;;5.40;1.60;;;;;;;3.74;75.66;99026.94;5010842;28;20156;-72
2021/03/16 01:09:12;;;;;;;5.15;1.58;;;;;;;3.81;75.21;99026.34;5033781;28;20056;-72
2021/03/16 01:11:37;;;;;;;3.53;1.50;;;;;;;3.78;75.14;99024.81;5001630;28;20057;-72
2021/03/16 01:14:07;;;;;;;4.63;1.60;;;;;;;3.82;74.73;99025.34;5016800;28;20080;-72
2021/03/16 01:16:33;;;;;;;8.05;1.70;;;;;;;3.80;75.25;99027.31;4996629;28;20065;-72
2021/03/16 01:18:59;;;;;;;4.05;1.50;;;;;;;3.80;75.11;99012.13;5007338;28;20061;-73
2021/03/16 01:21:24;;;;;;;3.33;1.38;;;;;;;3.76;74.75;99018.78;5004138;28;20038;-71
2021/03/16 01:23:49;;;;;;;7.30;1.40;;;;;;;3.74;74.51;99021.59;5005964;28;20030;-72
2021/03/16 01:26:15;;;;;;;3.35;1.20;;;;;;;3.73;74.76;99030.63;5014099;28;20061;-72
2021/03/16 01:28:40;;;;;;;5.47;1.65;;;;;;;3.82;73.72;99025.34;5021888;28;20018;-72
2021/03/16 01:31:05;;;;;;;10.73;1.70;;;;;;;3.81;73.79;99024.50;5014216;28;20038;-72
2021/03/16 01:33:31;;;;;;;3.83;1.60;;;;;;;3.79;74.36;99025.66;5013918;28;20104;-72
2021/03/16 01:35:56;;;;;;;4.05;1.42;;;;;;;3.72;74.22;99023.59;5011179;28;20678;-72
2021/03/16 01:38:21;;;;;;;6.95;1.88;;;;;;;3.75;74.44;99027.81;4997085;28;20033;-72
2021/03/16 01:40:47;;;;;;;7.88;1.58;;;;;;;3.80;74.08;99032.66;5002067;28;20077;-72
2021/03/16 01:43:15;;;;;;;9.48;1.60;;;;;;;3.79;74.07;99031.00;4996627;28;20037;-72
2021/03/16 01:45:43;;;;;;;4.40;1.35;;;;;;;3.71;74.66;99037.94;5007276;28;20112;-72
2021/03/16 01:48:11;;;;;;;3.63;1.35;;;;;;;3.77;74.49;99046.38;5014466;28;20088;-72
2021/03/16 01:50:37;;;;;;;3.45;1.13;;;;;;;3.71;74.81;99039.78;5015101;28;20044;-72
2021/03/16 01:53:03;;;;;;;15.48;1.88;;;;;;;3.67;74.96;99055.31;5013440;28;20057;-72
2021/03/16 01:55:30;;;;;;;7.03;1.58;;;;;;;3.62;75.62;99041.56;5006723;28;20057;-72
2021/03/16 01:57:56;;;;;;;6.97;1.27;;;;;;;3.66;75.22;99052.78;5012579;28;20030;-72
2021/03/16 02:00:22;;;;;;;6.47;1.40;;;;;;;3.51;75.17;99023.91;5014133;28;20652;-73
2021/03/16 02:02:48;;;;;;;4.18;1.08;;;;;;;3.68;75.37;99051.66;4999128;28;20056;-72
2021/03/16 02:05:14;;;;;;;4.88;1.17;;;;;;;3.57;75.31;99038.50;5006209;28;20400;-72
2021/03/16 02:08:04;;;;;;;8.05;1.40;;;;;;;3.66;75.65;99048.28;5008591;28;20033;-73
2021/03/16 02:10:40;;;;;;;5.35;1.33;;;;;;;3.66;75.48;99050.13;4994112;28;20037;-72
2021/03/16 02:13:14;;;;;;;6.80;1.48;;;;;;;3.62;75.90;99035.38;5021337;28;20085;-72
2021/03/16 02:15:41;;;;;;;10.02;1.50;;;;;;;3.58;76.02;99032.16;5002266;28;20053;-72
2021/03/16 02:18:12;;;;;;;5.72;1.50;;;;;;;3.56;75.55;99036.81;5009142;28;20100;-73
2021/03/16 02:21:15;;;;;;;6.88;1.48;;;;;;;3.61;75.92;99044.38;5013241;28;20033;-72
2021/03/16 02:24:05;;;;;;;6.97;1.63;;;;;;;3.57;76.23;99040.34;4972839;28;20488;-72
2021/03/16 02:26:58;;;;;;;3.38;1.10;;;;;;;3.60;76.36;99046.22;5004379;28;20031;-73
2021/03/16 02:29:32;;;;;;;8.45;1.30;;;;;;;3.52;75.97;99040.78;5012694;28;20102;-72
2021/03/16 02:32:08;;;;;;;6.25;1.35;;;;;;;3.57;75.84;99041.19;4995427;28;20022;-72
2021/03/16 02:34:34;;;;;;;10.15;1.58;;;;;;;3.51;76.32;99049.78;5000099;28;20060;-72
2021/03/16 02:37:03;;;;;;;6.60;1.23;;;;;;;3.57;76.00;99045.69;4998595;28;20503;-72
2021/03/16 02:39:31;;;;;;;5.55;1.20;;;;;;;3.55;76.80;99055.72;5016373;28;20075;-72
2021/03/16 02:41:59;;;;;;;6.13;1.20;;;;;;;3.54;76.83;99062.91;5021885;28;20518;-72
2021/03/16 02:44:25;;;;;;;6.55;1.23;;;;;;;3.52;76.78;99046.16;4993143;28;20116;-72
2021/03/16 02:46:52;;;;;;;9.00;1.70;;;;;;;3.56;76.48;99052.84;5000338;28;20021;-72
2021/03/16 02:49:18;;;;;;;4.47;1.00;;;;;;;3.49;76.83;99057.16;5014014;28;20017;-72
2021/03/16 02:51:44;;;;;;;3.95;1.15;;;;;;;3.44;76.66;99057.59;5006063;28;20126;-72
2021/03/16 02:54:11;;;;;;;5.95;1.52;;;;;;;3.45;76.76;99058.44;5008322;28;20029;-72
2021/03/16 02:56:38;;;;;;;4.90;1.42;;;;;;;3.41;77.12;99052.56;4996606;28;20034;-72
2021/03/16 02:59:05;;;;;;;7.20;1.30;;;;;;;3.45;77.61;99067.31;4995347;28;20029;-72
2021/03/16 03:01:34;;;;;;;3.13;1.15;;;;;;;3.42;77.26;99070.28;5009443;28;20026;-72
2021/03/16 03:04:01;;;;;;;3.70;1.23;;;;;;;3.41;77.93;99073.13;5007465;28;20050;-72
2021/03/16 03:06:27;;;;;;;5.07;1.25;;;;;;;3.37;78.67;99079.75;4999640;28;20027;-72
2021/03/16 03:08:53;;;;;;;8.02;1.33;;;;;;;3.39;79.09;99083.13;4994049;28;20038;-72
2021/03/16 03:11:18;;;;;;;6.45;1.55;;;;;;;3.27;80.40;99091.38;5007797;28;20030;-72
2021/03/16 03:13:44;;;;;;;6.00;1.58;;;;;;;3.18;81.01;99097.59;5013880;28;20044;-72
2021/03/16 03:16:09;;;;;;;4.28;1.30;;;;;;;3.11;81.36;99091.16;4998502;28;20021;-72
2021/03/16 03:18:35;;;;;;;6.25;1.70;;;;;;;3.19;80.37;99103.78;5003763;28;20231;-72
2021/03/16 03:21:05;;;;;;;8.10;1.63;;;;;;;3.15;81.14;99105.09;5015024;28;20388;-72
2021/03/16 03:23:33;;;;;;;7.25;1.80;;;;;;;3.11;81.02;99107.19;5011872;28;20029;-72
2021/03/16 03:26:09;;;;;;;3.93;1.40;;;;;;;3.15;80.53;99110.44;5001642;28;20034;-72
2021/03/16 03:28:35;;;;;;;6.82;1.45;;;;;;;3.08;80.88;99102.97;5002425;28;20025;-72
2021/03/16 03:31:02;;;;;;;10.73;1.85;;;;;;;3.11;80.82;99111.69;4999544;28;20037;-72
2021/03/16 03:33:30;;;;;;;6.40;1.83;;;;;;;3.12;80.56;99103.53;4994355;28;20156;-72
2021/03/16 03:35:57;;;;;;;7.63;1.65;;;;;;;3.14;80.08;99116.75;5009256;28;20087;-72
2021/03/16 03:38:25;;;;;;;6.65;1.55;;;;;;;3.14;80.01;99122.94;5012783;28;20446;-72
2021/03/16 03:40:51;;;;;;;3.92;1.33;;;;;;;3.15;80.32;99129.97;5011612;28;20030;-72
2021/03/16 03:43:19;;;;;;;5.32;1.48;;;;;;;3.15;80.35;99129.97;5004315;28;20026;-72
2021/03/16 03:45:48;;;;;;;6.20;1.33;;;;;;;3.14;80.69;99128.28;5002713;28;20034;-72
2021/03/16 03:48:15;;;;;;;9.35;1.80;;;;;;;3.07;80.24;99121.84;5011036;28;20030;-72
2021/03/16 03:50:41;;;;;;;9.90;1.67;;;;;;;3.15;79.52;99134.50;5025504;28;20033;-72
2021/03/16 03:53:09;;;;;;;8.02;1.75;;;;;;;3.14;79.79;99135.47;5003774;28;20481;-72
2021/03/16 03:55:36;;;;;;;8.43;1.50;;;;;;;3.08;79.56;99124.38;4996284;28;20104;-72
2021/03/16 03:58:02;;;;;;;8.77;1.50;;;;;;;3.15;79.42;99134.50;5008662;28;20554;-72
2021/03/16 04:00:29;;;;;;;5.45;1.70;;;;;;;3.12;79.19;99119.59;5000049;28;20153;-72
2021/03/16 04:02:56;;;;;;;9.68;1.70;;;;;;;3.18;78.86;99134.19;5012441;28;20021;-72
2021/03/16 04:05:22;;;;;;;4.35;1.70;;;;;;;3.24;79.08;99144.28;5011187;28;20033;-72
2021/03/16 04:07:49;;;;;;;4.32;1.38;;;;;;;3.22;79.51;99147.13;5005928;28;20109;-72
2021/03/16 04:10:16;;;;;;;4.72;1.17;;;;;;;3.29;78.93;99155.38;4994639;28;20033;-71
2021/03/16 04:12:42;;;;;;;6.93;1.83;;;;;;;3.26;78.86;99143.13;5009244;28;20052;-71
2021/03/16 04:15:10;;;;;;;7.57;1.55;;;;;;;3.26;78.69;99153.84;5030883;28;20036;-72
2021/03/16 04:17:36;;;;;;;8.05;1.60;;;;;;;3.25;78.90;99157.50;4994664;28;20053;-72
2021/03/16 04:20:04;;;;;;;5.03;1.42;;;;;;;3.26;79.55;99156.50;5009743;28;20034;-71
2021/03/16 04:22:30;;;;;;;5.05;1.25;;;;;;;3.17;79.59;99144.06;5013705;28;20065;-71
2021/03/16 04:24:56;;;;;;;4.80;1.48;;;;;;;3.11;79.66;99139.28;5006341;28;20111;-73
2021/03/16 04:27:22;;;;;;;8.05;1.60;;;;;;;3.00;80.32;99160.84;5011019;28;20122;-74
2021/03/16 04:29:47;;;;;;;7.78;1.88;;;;;;;2.89;82.01;99151.19;5005156;28;20562;-74
2021/03/16 04:32:13;;;;;;;7.70;1.83;;;;;;;2.82;82.75;99168.78;5005609;28;20030;-74
2021/03/16 04:34:38;;;;;;;4.28;1.48;;;;;;;2.80;83.72;99168.94;5014255;28;20021;-73
2021/03/16 04:37:04;;;;;;;3.00;1.30;;;;;;;2.77;83.16;99179.06;5015679;28;20076;-75
2021/03/16 04:39:29;;;;;;;6.93;1.63;;;;;;;2.61;82.63;99145.75;5014493;28;20019;-74
2021/03/16 04:41:55;;;;;;;8.77;1.83;;;;;;;2.59;83.43;99166.47;5019737;28;20087;-73
2021/03/16 04:44:20;;;;;;;3.05;1.65;;;;;;;2.57;84.11;99168.44;5010045;28;20108;-73
2021/03/16 04:46:45;;;;;;;8.18;1.45;;;;;;;2.58;84.11;99164.75;5016393;28;20109;-74
2021/03/16 04:49:10;;;;;;;4.72;1.60;;;;;;;2.56;83.53;99161.38;5015300;28;20030;-73
2021/03/16 04:51:36;;;;;;;5.00;1.40;;;;;;;2.47;83.68;99156.91;5010843;28;20113;-73
2021/03/16 04:54:01;;;;;;;7.05;1.55;;;;;;;2.61;83.32;99169.81;5015321;28;20476;-75
2021/03/16 04:56:26;;;;;;;8.13;1.40;;;;;;;2.62;83.11;99176.84;5014245;28;20025;-73
2021/03/16 04:58:52;;;;;;;7.40;1.83;;;;;;;2.59;82.96;99170.94;5008720;28;20029;-75
2021/03/16 05:01:17;;;;;;;14.93;1.73;;;;;;;2.70;82.73;99177.94;4998128;28;20034;-73
2021/03/16 05:03:43;;;;;;;5.72;1.40;;;;;;;2.70;83.35;99188.63;5009423;28;20061;-73
2021/03/16 05:06:08;;;;;;;8.80;1.42;;;;;;;2.64;84.06;99174.00;4995372;28;20030;-73
2021/03/16 05:08:33;;;;;;;10.30;1.67;;;;;;;2.57;84.09;99170.25;4997651;28;20477;-72
2021/03/16 05:10:59;;;;;;;7.80;1.58;;;;;;;2.65;83.58;99186.41;5007777;28;20112;-76
2021/03/16 05:13:24;;;;;;;9.52;1.55;;;;;;;2.60;83.74;99194.84;5014755;28;20076;-74
2021/03/16 05:15:49;;;;;;;11.40;1.70;;;;;;;2.65;84.03;99197.09;5011541;28;20084;-72
2021/03/16 05:18:15;;;;;;;5.95;1.20;;;;;;;2.58;83.76;99195.97;5002678;28;20026;-72
2021/03/16 05:20:40;;;;;;;5.90;1.50;;;;;;;2.58;83.73;99196.81;5001001;28;20034;-74
2021/03/16 05:23:05;;;;;;;5.63;1.60;;;;;;;2.66;84.55;99211.28;5002849;28;20099;-73
2021/03/16 05:25:31;;;;;;;11.07;1.63;;;;;;;2.60;84.37;99210.03;5013306;28;20018;-76
2021/03/16 05:27:56;;;;;;;8.00;1.60;;;;;;;2.63;84.08;99209.75;5000830;28;20106;-76
2021/03/16 05:30:22;;;;;;;10.48;1.60;;;;;;;2.57;84.33;99211.16;5001269;28;20032;-76
2021/03/16 05:32:56;;;;;;;10.60;1.58;;;;;;;2.64;84.12;99222.09;5015635;28;20026;-73
2021/03/16 05:35:23;;;;;;;4.78;1.30;;;;;;;2.68;83.44;99222.69;5013498;28;20049;-74
2021/03/16 05:37:48;;;;;;;4.85;1.40;;;;;;;2.66;83.68;99220.13;5013560;28;20117;-71
2021/03/16 05:40:14;;;;;;;10.40;2.05;;;;;;;2.77;83.06;99229.81;5017628;28;20054;-75
2021/03/16 05:42:39;;;;;;;6.82;1.60;;;;;;;2.77;82.80;99236.00;5011990;28;20019;-75
2021/03/16 05:45:06;;;;;;;9.90;1.40;;;;;;;2.75;82.65;99223.78;4995988;28;20025;-76
2021/03/16 05:47:31;;;;;;;6.88;1.30;;;;;;;2.83;82.86;99240.78;4993802;28;20041;-74
2021/03/16 05:49:58;;;;;;;8.07;1.27;;;;;;;2.77;82.86;99244.00;5005001;28;20026;-76
2021/03/16 05:52:25;;;;;;;4.68;1.38;;;;;;;2.80;82.72;99253.56;5000206;28;20028;-76
2021/03/16 05:54:54;;;;;;;9.30;1.50;;;;;;;2.76;81.78;99244.19;5013548;28;20076;-76
2021/03/16 05:57:21;;;;;;;6.03;1.17;;;;;;;2.87;82.21;99259.22;5007613;28;20037;-72
2021/03/16 05:59:47;;;;;;;6.68;1.25;;;;;;;2.87;81.54;99253.88;5014726;28;20092;-77
2021/03/16 06:02:14;;;;;;;6.05;1.05;;;;;;;2.92;80.90;99262.28;4988888;28;20021;-74
2021/03/16 06:04:43;;;;;;;8.93;1.30;;;;;;;2.81;81.11;99245.44;4997958;28;20031;-75
2021/03/16 06:07:12;;;;;;;7.82;1.35;;;;;;;2.89;81.08;99265.25;5011372;28;22526;-74
2021/03/16 06:09:37;;;;;;;9.93;1.30;;;;;;;2.89;81.22;99263.44;5014276;28;20491;-75
2021/03/16 06:12:03;;;;;;;7.25;1.60;;;;;;;2.90;80.52;99256.25;5014914;28;20022;-74
2021/03/16 06:14:30;;;;;;;4.45;1.23;;;;;;;2.92;80.75;99272.97;5012652;28;20021;-77
2021/03/16 06:16:56;;;;;;;6.10;1.30;;;;;;;2.89;81.19;99251.91;4998282;28;20038;-76
2021/03/16 06:19:26;;;;;;;9.70;1.15;;;;;;;2.97;80.71;99276.91;5015002;28;20030;-74
2021/03/16 06:21:59;;;;;;;9.30;1.30;;;;;;;3.01;80.36;99278.31;5007444;28;20048;-73
2021/03/16 06:24:25;;;;;;;10.48;1.73;;;;;;;3.06;80.19;99275.19;5007497;28;20030;-70
2021/03/16 06:26:50;;;;;;;5.07;1.27;;;;;;;3.04;80.08;99277.19;5007660;28;20482;-77
2021/03/16 06:29:16;;;;;;;6.38;1.77;;;;;;;3.05;80.31;99289.56;4992000;28;20069;-75
2021/03/16 06:31:41;;;;;;;5.07;1.20;;;;;;;3.07;79.59;99282.25;5011290;28;20450;-73
2021/03/16 06:34:17;;;;;;;8.77;1.52;;;;;;;3.11;80.02;99291.66;5015010;28;20025;-72
2021/03/16 06:36:42;;;;;;;7.45;1.55;;;;;;;3.19;79.42;99296.28;5012765;28;20033;-73
2021/03/16 06:39:19;;;;;;;4.15;1.23;;;;;;;3.08;79.79;99283.91;5013601;28;20396;-74
2021/03/16 06:41:44;;;;;;;8.65;1.30;;;;;;;3.17;79.56;99296.44;5015370;28;20026;-73
2021/03/16 06:44:16;;;;;;;8.25;1.25;;;;;;;3.16;79.12;99286.72;5013896;28;20041;-78
2021/03/16 06:46:42;;;;;;;10.60;1.35;;;;;;;3.26;79.21;99303.59;5000205;28;20034;-72
2021/03/16 06:49:16;;;;;;;7.80;1.42;;;;;;;3.28;79.24;99306.97;5003051;28;20032;-74
2021/03/16 06:51:42;;;;;;;9.40;1.77;;;;;;;3.28;79.06;99296.25;5012233;28;20062;-75
2021/03/16 06:54:10;;;;;;;5.38;1.48;;;;;;;3.36;79.12;99314.25;4996548;28;20119;-73
2021/03/16 06:56:35;;;;;;;6.43;1.45;;;;;;;3.40;79.29;99320.16;5011753;28;20033;-76
2021/03/16 06:59:01;;;;;;;7.97;1.50;;;;;;;3.39;79.46;99321.16;5017450;28;20034;-73
2021/03/16 07:01:31;;;;;;;3.92;1.00;;;;;;;3.33;79.08;99325.25;5006602;28;20030;-72
2021/03/16 07:03:56;;;;;;;5.50;1.10;;;;;;;3.37;79.43;99325.81;5006645;28;20476;-76
2021/03/16 07:06:21;;;;;;;9.05;1.88;;;;;;;3.36;79.30;99326.81;5006936;28;20025;-76
2021/03/16 07:08:49;;;;;;;6.32;1.58;;;;;;;3.45;79.72;99347.31;5008694;28;20058;-75
2021/03/16 07:11:21;;;;;;;7.57;1.50;;;;;;;3.45;79.91;99344.63;5014645;28;20049;-73
2021/03/16 07:13:47;;;;;;;6.78;1.30;;;;;;;3.30;79.59;99336.22;5011499;28;20033;-74
2021/03/16 07:16:13;;;;;;;7.68;1.40;;;;;;;3.45;80.11;99358.00;5009144;28;20048;-74
2021/03/16 07:18:41;;;;;;;7.00;1.60;;;;;;;3.43;79.79;99352.81;5009049;28;20149;-73
2021/03/16 07:21:18;;;;;;;10.80;1.90;;;;;;;3.36;79.98;99353.53;5013128;28;20038;-72
2021/03/16 07:23:49;;;;;;;4.63;1.25;;;;;;;3.29;80.89;99354.09;5011707;28;20034;-72
2021/03/16 07:26:15;;;;;;;6.72;1.55;;;;;;;3.37;80.52;99363.25;5007388;28;20623;-75
2021/03/16 07:28:48;;;;;;;12.05;2.03;;;;;;;3.33;81.28;99362.69;5009097;28;20068;-76
2021/03/16 07:31:14;;;;;;;3.60;1.83;;;;;;;3.40;80.64;99384.34;4995729;28;20543;-74
2021/03/16 07:33:40;;;;;;;7.20;2.13;;;;;;;3.38;80.78;99367.59;4995535;28;20166;-73
2021/03/16 07:36:07;;;;;;;13.35;2.13;;;;;;;3.37;80.60;99381.97;5008299;28;20030;-75
2021/03/16 07:38:33;;;;;;;9.27;1.63;;;;;;;3.41;81.32;99386.88;5006761;28;20061;-76
2021/03/16 07:41:00;;;;;;;10.05;2.15;;;;;;;3.48;80.90;99380.00;5002811;28;20034;-76
2021/03/16 07:43:34;;;;;;;8.50;1.67;;;;;;;3.62;80.30;99389.38;4995214;28;20758;-75
2021/03/16 07:46:14;;;;;;;5.00;1.52;;;;;;;3.58;80.96;99393.31;5005846;28;20034;-75
2021/03/16 07:48:46;;;;;;;7.30;1.50;;;;;;;3.57;80.34;99396.16;5003458;28;20053;-75
2021/03/16 07:51:17;;;;;;;6.90;1.25;;;;;;;3.59;79.56;99388.81;5002498;28;20022;-74
2021/03/16 07:54:04;;;;;;;6.13;1.63;;;;;;;3.62;79.56;99400.09;4992194;28;20030;-73
2021/03/16 07:56:35;;;;;;;9.73;1.67;;;;;;;3.68;78.96;99396.81;5003225;28;20479;-73
2021/03/16 07:59:02;;;;;;;7.78;1.55;;;;;;;3.75;79.68;99405.13;5012945;28;20065;-72
2021/03/16 08:01:28;;;;;;;6.95;1.92;;;;;;;3.86;78.54;99404.94;5014938;28;20029;-73
2021/03/16 08:04:09;;;;;;;6.15;1.48;;;;;;;3.98;78.72;99405.59;5013117;28;20365;-73
2021/03/16 08:06:36;;;;;;;7.93;1.52;;;;;;;4.00;78.65;99408.97;5000885;28;20080;-72
2021/03/16 08:09:04;;;;;;;8.02;2.05;;;;;;;3.97;78.07;99385.19;5007600;28;20022;-74
2021/03/16 08:11:40;;;;;;;10.15;1.85;;;;;;;4.17;77.96;99418.94;5000591;28;20132;-73
2021/03/16 08:14:07;;;;;;;7.20;2.15;;;;;;;4.23;77.74;99414.81;5008085;28;20033;-73
2021/03/16 08:16:38;;;;;;;7.18;2.03;;;;;;;4.21;78.32;99422.16;4995043;28;20025;-76
2021/03/16 08:19:13;;;;;;;6.88;1.63;;;;;;;4.18;77.24;99407.22;5012143;28;20083;-75
2021/03/16 08:21:43;;;;;;;7.32;1.83;;;;;;;4.22;76.95;99417.63;5009206;28;20503;-74
2021/03/16 08:24:10;;;;;;;5.35;1.60;;;;;;;4.15;77.27;99409.34;4994490;28;20029;-76
2021/03/16 08:26:50;;;;;;;8.60;2.55;;;;;;;4.21;76.28;99397.19;5000636;28;20041;-74
2021/03/16 08:29:24;;;;;;;7.95;1.63;;;;;;;4.38;77.06;99420.53;4989758;28;20041;-70
2021/03/16 08:31:51;;;;;;;7.03;1.83;;;;;;;4.17;76.51;99404.69;4993092;28;20022;-73
2021/03/16 08:34:17;;;;;;;9.20;2.22;;;;;;;4.22;76.22;99414.94;5012256;28;20104;-71
2021/03/16 08:36:43;;;;;;;6.80;1.60;;;;;;;4.15;76.87;99423.59;5005889;28;20490;-72
2021/03/16 08:39:10;;;;;;;7.10;1.48;;;;;;;4.18;77.59;99428.63;4994155;28;20418;-72
2021/03/16 08:41:35;;;;;;;5.93;1.60;;;;;;;4.12;77.41;99423.03;4997346;28;20036;-75
2021/03/16 08:44:01;;;;;;;5.25;1.75;;;;;;;3.95;78.03;99397.88;5013544;28;20108;-74
2021/03/16 08:46:31;;;;;;;5.35;2.08;;;;;;;4.09;79.00;99434.88;4991923;28;20083;-75
2021/03/16 08:48:57;;;;;;;6.72;1.85;;;;;;;3.91;78.51;99418.75;4998759;28;20534;-71
2021/03/16 08:51:24;;;;;;;15.60;2.60;;;;;;;3.91;78.88;99420.56;5013534;28;20045;-75
2021/03/16 08:53:50;;;;;;;6.60;2.28;;;;;;;4.11;79.27;99432.91;4998713;28;20022;-74
2021/03/16 08:56:20;;;;;;;8.88;2.30;;;;;;;4.18;78.55;99438.50;4994763;28;20037;-73
2021/03/16 08:58:45;;;;;;;4.40;2.20;;;;;;;4.18;78.16;99427.81;5019639;28;20075;-74
2021/03/16 09:01:10;;;;;;;12.65;2.25;;;;;;;4.23;78.16;99433.56;5015268;28;20113;-76
2021/03/16 09:03:36;;;;;;;10.70;2.35;;;;;;;4.32;77.70;99453.25;5015267;28;20040;-75
2021/03/16 09:06:01;;;;;;;9.25;2.22;;;;;;;4.35;78.32;99444.94;5010674;28;20037;-72
2021/03/16 09:08:27;;;;;;;7.53;1.83;;;;;;;4.44;77.91;99437.84;5012257;28;20076;-71
2021/03/16 09:10:53;;;;;;;9.98;2.38;;;;;;;4.45;77.00;99448.41;5007320;28;20053;-71
2021/03/16 09:13:28;;;;;;;9.27;1.92;;;;;;;4.43;77.68;99437.00;5012243;28;20057;-71
2021/03/16 09:15:53;;;;;;;8.70;1.80;;;;;;;4.55;76.17;99443.84;5013225;28;20087;-73
2021/03/16 09:18:21;;;;;;;7.72;1.77;;;;;;;4.57;76.14;99435.66;5014262;28;20030;-74
2021/03/16 09:20:48;;;;;;;10.77;1.70;;;;;;;4.74;76.12;99439.34;4998027;28;20038;-74
2021/03/16 09:23:14;;;;;;;5.45;1.67;;;;;;;4.91;75.71;99454.63;5003813;28;20438;-74
2021/03/16 09:25:42;;;;;;;6.45;2.17;;;;;;;5.05;74.97;99443.38;5006447;28;20059;-73
2021/03/16 09:28:10;;;;;;;9.50;2.40;;;;;;;5.23;74.77;99455.97;5009899;28;20081;-73
2021/03/16 09:30:42;;;;;;;8.25;2.53;;;;;;;5.29;74.50;99458.03;5004166;28;20032;-74
2021/03/16 09:33:10;;;;;;;9.95;2.70;;;;;;;5.26;74.34;99466.38;5007224;28;20116;-73
2021/03/16 09:35:36;;;;;;;10.40;2.67;;;;;;;5.20;72.94;99449.06;4995591;28;20646;-79
2021/03/16 09:38:07;;;;;;;14.02;3.33;;;;;;;5.07;74.03;99451.28;5007389;28;20058;-76
2021/03/16 09:40:33;;;;;;;8.80;2.95;;;;;;;4.94;74.11;99457.00;5015042;28;20022;-74
2021/03/16 09:43:00;;;;;;;7.68;2.60;;;;;;;4.93;74.07;99460.72;4997953;28;20026;-76
2021/03/16 09:45:31;;;;;;;6.78;2.50;;;;;;;4.86;75.47;99451.56;5006535;28;20506;-76
2021/03/16 09:48:01;;;;;;;8.15;2.17;;;;;;;4.87;75.31;99455.94;5003777;28;20033;-75
2021/03/16 09:50:36;;;;;;;7.00;2.15;;;;;;;4.67;75.54;99459.75;4996767;28;20034;-75
2021/03/16 09:53:04;;;;;;;5.30;2.00;;;;;;;4.60;75.77;99463.00;5000062;28;20640;-71
2021/03/16 09:55:31;;;;;;;9.13;2.33;;;;;;;4.63;75.33;99463.69;5001786;28;20060;-72
2021/03/16 09:57:57;;;;;;;6.90;2.33;;;;;;;4.57;76.33;99476.69;5003864;28;20034;-72
2021/03/16 10:00:25;;;;;;;7.97;1.92;;;;;;;4.56;75.33;99477.69;5010059;28;20029;-72
2021/03/16 10:03:01;;;;;;;9.45;2.65;;;;;;;4.44;76.48;99472.69;5006878;28;20030;-73
2021/03/16 10:05:26;;;;;;;7.13;2.60;;;;;;;4.46;75.64;99449.28;5006950;28;20092;-72
2021/03/16 10:07:52;;;;;;;7.07;2.45;;;;;;;4.54;75.31;99458.25;5013705;28;20105;-72
2021/03/16 10:10:19;;;;;;;9.15;2.60;;;;;;;4.86;75.48;99464.13;5013027;28;20391;-74
2021/03/16 10:12:55;;;;;;;8.63;2.60;;;;;;;5.07;73.88;99450.44;5014492;28;20030;-74
2021/03/16 10:15:26;;;;;;;7.53;2.83;;;;;;;5.26;73.09;99463.69;5009262;28;20026;-75
2021/03/16 10:17:53;;;;;;;10.93;2.85;;;;;;;5.47;72.80;99458.88;5009997;28;20026;-73
2021/03/16 10:20:23;;;;;;;5.82;2.42;;;;;;;5.54;72.54;99448.38;5014904;28;20037;-75
2021/03/16 10:22:54;;;;;;;9.75;3.08;;;;;;;5.65;71.27;99466.06;4994195;28;20103;-73
2021/03/16 10:25:19;;;;;;;10.48;3.10;;;;;;;5.55;72.00;99458.09;4995123;28;20037;-80
2021/03/16 10:27:54;;;;;;;9.15;2.47;;;;;;;5.35;72.47;99444.03;5007192;28;20025;-78
2021/03/16 10:30:26;;;;;;;9.82;3.03;;;;;;;5.32;71.79;99459.56;5014372;28;20624;-75
2021/03/16 10:32:52;;;;;;;10.20;2.60;;;;;;;5.37;72.87;99455.44;4997924;28;20026;-76
2021/03/16 10:35:17;;;;;;;8.82;2.95;;;;;;;5.37;72.75;99458.13;5004885;28;20056;-73
2021/03/16 10:37:45;;;;;;;10.45;3.22;;;;;;;5.49;72.29;99453.34;5000147;28;20034;-71
2021/03/16 10:40:12;;;;;;;5.85;2.97;;;;;;;5.69;71.75;99460.22;4990072;28;20033;-71
2021/03/16 10:42:38;;;;;;;7.65;2.55;;;;;;;6.01;70.38;99461.50;5002852;28;20021;-72
2021/03/16 10:45:03;;;;;;;10.52;2.72;;;;;;;6.13;69.47;99465.63;5013285;28;20088;-74
2021/03/16 10:47:29;;;;;;;10.55;3.50;;;;;;;6.28;69.18;99465.00;5013534;28;20022;-73
2021/03/16 10:49:54;;;;;;;11.82;3.60;;;;;;;6.49;69.20;99467.31;5000870;28;20023;-75
2021/03/16 10:52:19;;;;;;;9.80;2.72;;;;;;;6.59;68.93;99443.81;4992784;28;20025;-75
2021/03/16 10:54:47;;;;;;;7.75;2.85;;;;;;;6.78;67.47;99450.78;5000448;28;20030;-76
2021/03/16 10:57:12;;;;;;;8.63;2.70;;;;;;;6.97;68.18;99465.81;4992123;28;20026;-76
2021/03/16 10:59:37;;;;;;;9.30;2.22;;;;;;;6.93;67.46;99472.53;5014072;28;20088;-75
2021/03/16 11:02:03;;;;;;;14.25;2.30;;;;;;;6.77;67.29;99463.38;5017116;28;20398;-77
2021/03/16 11:04:28;;;;;;;11.70;2.10;;;;;;;6.91;67.82;99472.66;5015396;28;20472;-74
2021/03/16 11:06:53;;;;;;;10.23;2.45;;;;;;;6.67;66.69;99462.69;5017574;28;20126;-75
2021/03/16 11:09:19;;;;;;;10.27;2.75;;;;;;;6.59;66.13;99455.41;5007359;28;20034;-73
2021/03/16 11:11:44;;;;;;;9.18;2.50;;;;;;;6.69;67.35;99476.81;4993875;28;20030;-76
2021/03/16 11:14:09;;;;;;;7.28;2.13;;;;;;;6.45;67.72;99457.88;5008345;28;20045;-73
2021/03/16 11:16:35;;;;;;;14.00;1.92;;;;;;;6.44;68.40;99459.72;5003485;28;20100;-76
2021/03/16 11:19:00;;;;;;;8.90;2.40;;;;;;;6.33;67.75;99452.78;5009270;28;20097;-74
2021/03/16 11:21:27;;;;;;;6.03;2.15;;;;;;;6.43;66.76;99465.28;4983867;28;20026;-71
2021/03/16 11:23:52;;;;;;;10.30;2.28;;;;;;;6.35;67.24;99460.69;4998094;28;20417;-71
2021/03/16 11:26:18;;;;;;;4.93;1.83;;;;;;;6.26;67.45;99470.56;5003453;28;20105;-71
2021/03/16 11:28:44;;;;;;;7.68;2.08;;;;;;;6.29;67.67;99477.47;5000892;28;20045;-72
2021/03/16 11:31:10;;;;;;;6.03;2.60;;;;;;;6.32;66.77;99464.53;5016468;28;20034;-71
2021/03/16 11:33:35;;;;;;;12.95;2.67;;;;;;;6.31;67.51;99479.00;5005128;28;20080;-71
2021/03/16 11:36:00;;;;;;;7.70;2.08;;;;;;;6.19;66.22;99463.28;5003224;28;20018;-71
2021/03/16 11:38:26;;;;;;;4.32;2.35;;;;;;;6.10;66.75;99454.31;5000798;28;20365;-71
2021/03/16 11:40:52;;;;;;;7.43;2.60;;;;;;;6.10;67.60;99459.69;5007638;28;20088;-71
2021/03/16 11:43:17;;;;;;;5.55;2.15;;;;;;;6.04;67.56;99463.03;4992179;28;22566;-71